Time;durP1;ratioP1;P1;durP2;ratioP2;P2;SDS_P1;SDS_P2;PMS_P1;PMS_P2;Temp;Humidity;BMP_temperature;BMP_pressure;BME280_temperature;BME280_humidity;BME280_pressure;Samples;Min_cycle;Max_cycle;Signal;HPM_P1;HPM_P2
2023/05/03 00:00:18;;;;;;;13.88;8.30;;;8.70;99.90;;;;;;5073753;28;20039;-59
2023/05/03 00:02:44;;;;;;;11.70;7.72;;;8.70;99.90;;;;;;5075626;28;20032;-59
2023/05/03 00:05:16;;;;;;;8.68;7.75;;;8.70;99.90;;;;;;5075259;28;20032;-60
2023/05/03 00:07:42;;;;;;;9.77;8.18;;;8.70;99.90;;;;;;5073333;28;20020;-59
2023/05/03 00:10:11;;;;;;;16.67;8.50;;;8.70;99.90;;;;;;5077307;28;20028;-59
2023/05/03 00:12:41;;;;;;;23.52;8.82;;;8.70;99.90;;;;;;5075245;28;20024;-57
2023/05/03 00:15:07;;;;;;;11.45;7.43;;;8.70;99.90;;;;;;5077193;28;20048;-59
2023/05/03 00:17:33;;;;;;;11.45;8.20;;;8.80;99.90;;;;;;5074309;28;20509;-59
2023/05/03 00:19:59;;;;;;;12.25;9.32;;;8.80;99.90;;;;;;5072802;28;20043;-57
2023/05/03 00:22:25;;;;;;;16.35;8.02;;;8.80;99.90;;;;;;5075697;28;20028;-60
2023/05/03 00:24:51;;;;;;;9.55;8.05;;;8.80;99.90;;;;;;5075015;28;20688;-56
2023/05/03 00:27:18;;;;;;;8.55;7.68;;;8.80;99.90;;;;;;5073065;28;20047;-59
2023/05/03 00:29:44;;;;;;;10.48;7.28;;;8.80;99.90;;;;;;5075536;28;20640;-59
2023/05/03 00:32:10;;;;;;;9.88;8.07;;;8.80;99.90;;;;;;5050987;28;20083;-59
2023/05/03 00:34:36;;;;;;;14.23;8.88;;;8.80;99.90;;;;;;5074307;28;20020;-60
2023/05/03 00:37:02;;;;;;;13.02;7.28;;;8.70;99.90;;;;;;5069880;28;20029;-59
2023/05/03 00:39:31;;;;;;;8.50;7.00;;;8.60;99.90;;;;;;5069414;28;20035;-59
2023/05/03 00:42:02;;;;;;;9.93;6.68;;;8.60;99.90;;;;;;5070744;28;20029;-59
2023/05/03 00:44:29;;;;;;;9.55;7.70;;;8.60;99.90;;;;;;5075903;28;20025;-59
2023/05/03 00:46:55;;;;;;;15.80;9.13;;;8.50;99.90;;;;;;5076050;28;20074;-59
2023/05/03 00:49:23;;;;;;;10.73;7.55;;;8.50;99.90;;;;;;5074055;28;20031;-61
2023/05/03 00:51:51;;;;;;;9.60;7.35;;;8.50;99.90;;;;;;5075251;28;20024;-60
2023/05/03 00:54:17;;;;;;;10.68;7.57;;;8.50;99.90;;;;;;5070521;28;20032;-59
2023/05/03 00:56:43;;;;;;;11.75;7.80;;;8.50;99.90;;;;;;5076046;28;20032;-58
2023/05/03 00:59:10;;;;;;;12.52;7.35;;;8.40;99.90;;;;;;5075617;28;20043;-60
2023/05/03 01:01:36;;;;;;;12.48;7.65;;;8.40;99.90;;;;;;5075570;28;20077;-58
2023/05/03 01:04:03;;;;;;;10.15;8.68;;;8.40;99.90;;;;;;5074524;28;20036;-59
2023/05/03 01:06:36;;;;;;;12.77;8.27;;;8.40;99.90;;;;;;5072892;28;20115;-59
2023/05/03 01:09:27;;;;;;;14.60;7.65;;;8.30;99.90;;;;;;5076869;28;20039;-59
2023/05/03 01:12:11;;;;;;;12.80;8.63;;;8.20;99.90;;;;;;5069785;28;20060;-60
2023/05/03 01:14:43;;;;;;;19.30;9.68;;;8.10;99.90;;;;;;5069882;28;20028;-59
2023/05/03 01:17:12;;;;;;;17.20;8.15;;;8.10;99.90;;;;;;5072823;28;20028;-59
2023/05/03 01:19:50;;;;;;;11.90;8.50;;;8.10;99.90;;;;;;5073857;28;20424;-58
2023/05/03 01:22:21;;;;;;;12.27;8.35;;;8.00;99.90;;;;;;5072102;28;20044;-59
2023/05/03 01:24:53;;;;;;;16.92;9.10;;;8.00;99.90;;;;;;5072358;28;20047;-58
2023/05/03 01:27:19;;;;;;;9.02;7.90;;;7.90;99.90;;;;;;5070624;28;20037;-58
2023/05/03 01:29:44;;;;;;;9.40;6.68;;;7.90;99.90;;;;;;5072101;28;20518;-59
2023/05/03 01:32:18;;;;;;;13.88;7.85;;;7.90;99.90;;;;;;5069940;28;20576;-60
2023/05/03 01:35:33;;;;;;;9.85;8.10;;;7.80;99.90;;;;;;5054015;28;20013;-59
2023/05/03 01:37:59;;;;;;;16.23;7.85;;;7.70;99.90;;;;;;4975544;28;20518;-59
2023/05/03 01:40:28;;;;;;;12.57;8.35;;;7.60;99.90;;;;;;5061656;28;20037;-59
2023/05/03 01:42:55;;;;;;;14.63;9.00;;;7.50;99.90;;;;;;5074633;28;20025;-58
2023/05/03 01:45:21;;;;;;;9.48;7.85;;;7.30;99.90;;;;;;5043361;28;20125;-59
2023/05/03 01:47:47;;;;;;;13.75;8.02;;;7.30;99.90;;;;;;5073337;28;20040;-59
2023/05/03 01:50:13;;;;;;;11.55;8.18;;;7.10;99.90;;;;;;5074291;28;20798;-59
2023/05/03 01:52:39;;;;;;;12.35;7.40;;;7.10;99.90;;;;;;5073412;28;20028;-59
2023/05/03 01:55:05;;;;;;;12.60;8.00;;;7.00;99.90;;;;;;5069524;28;20024;-59
2023/05/03 01:57:31;;;;;;;11.05;8.35;;;6.90;99.90;;;;;;5075200;28;20442;-59
2023/05/03 01:59:56;;;;;;;9.88;7.22;;;6.90;99.90;;;;;;5072425;28;20028;-59
2023/05/03 02:02:22;;;;;;;9.15;7.85;;;6.80;99.90;;;;;;5071407;28;20508;-57
2023/05/03 02:04:48;;;;;;;10.38;7.72;;;6.80;99.90;;;;;;5073751;28;20396;-59
2023/05/03 02:07:14;;;;;;;13.82;8.02;;;6.80;99.90;;;;;;5072743;28;20031;-59
2023/05/03 02:09:40;;;;;;;12.85;7.80;;;6.80;99.90;;;;;;5070391;28;20024;-59
2023/05/03 02:12:05;;;;;;;9.23;8.20;;;6.70;99.90;;;;;;5071719;28;20146;-59
2023/05/03 02:14:31;;;;;;;12.27;9.27;;;6.70;99.90;;;;;;5075340;28;20028;-60
2023/05/03 02:16:57;;;;;;;9.95;8.30;;;6.70;99.90;;;;;;5071477;28;20029;-60
2023/05/03 02:19:23;;;;;;;18.02;10.00;;;6.60;99.90;;;;;;5073931;28;20446;-59
2023/05/03 02:21:49;;;;;;;13.55;9.55;;;6.50;99.90;;;;;;5072309;28;20115;-60
2023/05/03 02:24:15;;;;;;;14.65;7.82;;;6.40;99.90;;;;;;5072097;28;20032;-59
2023/05/03 02:26:41;;;;;;;16.23;7.80;;;6.40;99.90;;;;;;5070926;28;20116;-58
2023/05/03 02:29:07;;;;;;;10.93;6.80;;;6.40;99.90;;;;;;5078794;28;20248;-59
2023/05/03 02:31:32;;;;;;;12.25;6.22;;;6.50;99.90;;;;;;5079215;28;20449;-60
2023/05/03 02:33:58;;;;;;;9.05;5.90;;;6.40;99.90;;;;;;5077028;28;20028;-60
2023/05/03 02:36:23;;;;;;;12.63;7.40;;;6.50;99.90;;;;;;5042193;28;20029;-59
2023/05/03 02:38:49;;;;;;;9.32;5.40;;;6.60;99.90;;;;;;5079090;28;20078;-60
2023/05/03 02:41:15;;;;;;;18.92;5.53;;;6.50;99.90;;;;;;5074907;28;20032;-59
2023/05/03 02:43:40;;;;;;;10.80;6.13;;;6.50;99.90;;;;;;5075244;28;20020;-59
2023/05/03 02:46:06;;;;;;;9.30;5.53;;;6.40;99.90;;;;;;5074964;28;20489;-59
2023/05/03 02:48:32;;;;;;;8.70;5.60;;;6.40;99.90;;;;;;5076726;28;20048;-58
2023/05/03 02:50:57;;;;;;;9.70;6.90;;;6.30;99.90;;;;;;5075848;28;20540;-59
2023/05/03 02:53:23;;;;;;;14.80;6.07;;;6.20;99.90;;;;;;5077734;28;20081;-59
2023/05/03 02:55:49;;;;;;;9.98;5.82;;;6.10;99.90;;;;;;5074119;28;20111;-59
2023/05/03 02:58:15;;;;;;;9.63;4.75;;;6.10;99.90;;;;;;5077057;28;20054;-60
2023/05/03 03:00:40;;;;;;;8.02;4.85;;;6.00;99.90;;;;;;5076366;28;20461;-60
2023/05/03 03:03:06;;;;;;;5.43;4.32;;;6.00;99.90;;;;;;5074908;28;20036;-59
2023/05/03 03:05:32;;;;;;;6.50;3.78;;;6.10;99.90;;;;;;5074776;28;20737;-60
2023/05/03 03:07:57;;;;;;;6.30;4.00;;;6.10;99.90;;;;;;5072159;28;20102;-59
2023/05/03 03:10:23;;;;;;;6.22;3.78;;;6.10;99.90;;;;;;5075291;28;20024;-59
2023/05/03 03:12:49;;;;;;;4.93;3.90;;;6.20;99.90;;;;;;5080365;28;20043;-59
2023/05/03 03:15:15;;;;;;;6.82;4.63;;;6.20;99.90;;;;;;5073470;28;20721;-55
2023/05/03 03:17:41;;;;;;;7.28;4.80;;;6.20;99.90;;;;;;5058747;28;20028;-54
2023/05/03 03:20:10;;;;;;;15.40;6.18;;;6.20;99.90;;;;;;5076165;28;20029;-56
2023/05/03 03:22:37;;;;;;;6.18;4.53;;;6.20;99.90;;;;;;5039892;28;20126;-55
2023/05/03 03:25:05;;;;;;;7.63;4.80;;;6.20;99.90;;;;;;5055808;28;20031;-59
2023/05/03 03:27:37;;;;;;;9.60;5.00;;;6.10;99.90;;;;;;5074909;28;20031;-56
2023/05/03 03:30:04;;;;;;;7.97;4.38;;;6.10;99.90;;;;;;5043948;28;20031;-55
2023/05/03 03:32:31;;;;;;;11.43;4.90;;;6.00;99.90;;;;;;5055264;28;20029;-57
2023/05/03 03:34:57;;;;;;;7.18;4.75;;;5.90;99.90;;;;;;5053042;28;20108;-54
2023/05/03 03:37:23;;;;;;;8.20;5.60;;;5.80;99.90;;;;;;5076083;28;20118;-55
2023/05/03 03:39:49;;;;;;;5.75;5.18;;;5.70;99.90;;;;;;5068568;28;20043;-55
2023/05/03 03:42:15;;;;;;;7.60;5.60;;;5.70;99.90;;;;;;5074689;28;20077;-55
2023/05/03 03:44:41;;;;;;;6.03;5.43;;;5.70;99.90;;;;;;5054597;28;20052;-55
2023/05/03 03:47:07;;;;;;;8.60;5.28;;;5.60;99.90;;;;;;5079988;28;20060;-61
2023/05/03 03:49:33;;;;;;;7.28;5.57;;;5.60;99.90;;;;;;5084546;28;20524;-57
2023/05/03 03:52:02;;;;;;;8.05;6.38;;;5.50;99.90;;;;;;5062338;28;20040;-58
2023/05/03 03:54:34;;;;;;;7.93;6.38;;;5.50;99.90;;;;;;5060778;28;20056;-56
2023/05/03 03:57:01;;;;;;;10.65;6.43;;;5.50;99.90;;;;;;5079695;28;20450;-56
2023/05/03 03:59:28;;;;;;;7.25;6.43;;;5.40;99.90;;;;;;5062390;28;20028;-56
2023/05/03 04:01:54;;;;;;;8.73;6.88;;;5.40;99.90;;;;;;5077777;28;20021;-56
2023/05/03 04:04:20;;;;;;;8.95;5.55;;;5.40;99.90;;;;;;5059348;28;20020;-58
2023/05/03 04:06:46;;;;;;;7.80;6.95;;;5.30;99.90;;;;;;5053087;28;20164;-57
2023/05/03 04:09:13;;;;;;;11.80;6.25;;;5.30;99.90;;;;;;5052824;28;20029;-56
2023/05/03 04:11:39;;;;;;;6.25;5.63;;;5.30;99.90;;;;;;5054206;28;20096;-56
2023/05/03 04:14:05;;;;;;;12.70;6.22;;;5.30;99.90;;;;;;5049673;28;20024;-57
2023/05/03 04:16:31;;;;;;;9.05;6.30;;;5.30;99.90;;;;;;5060364;28;20074;-54
2023/05/03 04:18:57;;;;;;;9.93;7.05;;;5.30;99.90;;;;;;5077808;28;20033;-57
2023/05/03 04:21:23;;;;;;;11.23;6.22;;;5.30;99.90;;;;;;5074323;28;20443;-56
2023/05/03 04:23:49;;;;;;;9.15;5.32;;;5.30;99.90;;;;;;5069631;28;20032;-56
2023/05/03 04:26:16;;;;;;;15.55;6.18;;;5.30;99.90;;;;;;5052876;28;20044;-56
2023/05/03 04:28:43;;;;;;;9.80;5.72;;;5.30;99.90;;;;;;5057313;28;20514;-56
2023/05/03 04:31:13;;;;;;;6.95;5.18;;;5.30;99.90;;;;;;5075749;28;20135;-55
2023/05/03 04:33:39;;;;;;;6.03;5.03;;;5.30;99.90;;;;;;5074425;28;20054;-55
2023/05/03 04:36:06;;;;;;;10.85;5.13;;;5.30;99.90;;;;;;5070609;28;20059;-55
2023/05/03 04:38:32;;;;;;;7.63;6.70;;;5.30;99.90;;;;;;5072117;28;20017;-56
2023/05/03 04:40:58;;;;;;;12.25;6.63;;;5.40;99.90;;;;;;5072030;28;20027;-55
2023/05/03 04:43:24;;;;;;;7.68;6.20;;;5.40;99.90;;;;;;5055804;28;20023;-55
2023/05/03 04:45:52;;;;;;;8.40;6.25;;;5.50;99.90;;;;;;5069257;28;20119;-58
2023/05/03 04:48:18;;;;;;;8.20;4.82;;;5.60;99.90;;;;;;5069293;28;20047;-57
2023/05/03 04:50:44;;;;;;;8.57;6.50;;;5.80;99.90;;;;;;5051194;28;20032;-55
2023/05/03 04:53:10;;;;;;;7.43;4.57;;;6.00;99.90;;;;;;5069984;28;20543;-55
2023/05/03 04:55:36;;;;;;;8.73;3.80;;;6.20;99.90;;;;;;5074494;28;20120;-55
2023/05/03 04:58:02;;;;;;;6.22;3.97;;;6.30;99.90;;;;;;5068325;28;20497;-56
2023/05/03 05:00:32;;;;;;;6.72;3.92;;;6.40;99.90;;;;;;5072452;28;20032;-57
2023/05/03 05:02:57;;;;;;;4.90;3.60;;;6.60;99.90;;;;;;5072249;28;20025;-56
2023/05/03 05:05:23;;;;;;;7.10;3.92;;;6.70;99.90;;;;;;5070420;28;20499;-57
2023/05/03 05:07:50;;;;;;;7.90;5.00;;;6.90;99.90;;;;;;5038918;28;20024;-55
2023/05/03 05:10:17;;;;;;;10.60;4.20;;;7.00;99.90;;;;;;5076926;28;20082;-57
2023/05/03 05:12:43;;;;;;;6.45;4.25;;;7.10;99.90;;;;;;5051790;28;20425;-57
2023/05/03 05:15:10;;;;;;;8.45;5.50;;;7.20;99.90;;;;;;5059286;28;20115;-57
2023/05/03 05:17:36;;;;;;;6.22;4.32;;;7.30;99.90;;;;;;5050687;28;20024;-56
2023/05/03 05:20:05;;;;;;;8.20;4.93;;;7.40;99.90;;;;;;5070161;28;20043;-56
2023/05/03 05:22:31;;;;;;;6.18;4.28;;;7.50;99.90;;;;;;5077985;28;20027;-57
2023/05/03 05:25:00;;;;;;;5.80;4.20;;;7.60;99.90;;;;;;5074571;28;20029;-56
2023/05/03 05:27:27;;;;;;;7.55;4.13;;;7.70;99.90;;;;;;5075028;28;20102;-57
2023/05/03 05:29:53;;;;;;;8.18;4.43;;;7.80;99.90;;;;;;5078404;28;20047;-57
2023/05/03 05:32:28;;;;;;;5.97;3.50;;;7.90;99.90;;;;;;5048473;28;20041;-57
2023/05/03 05:34:54;;;;;;;7.20;3.40;;;7.90;99.90;;;;;;5049805;28;20025;-57
2023/05/03 05:37:24;;;;;;;8.32;3.55;;;8.00;99.90;;;;;;5077330;28;20115;-58
2023/05/03 05:39:50;;;;;;;16.20;13.23;;;8.20;99.90;;;;;;5057027;28;20035;-56
2023/05/03 05:42:16;;;;;;;7.50;5.82;;;8.30;99.90;;;;;;5070446;28;20047;-60
2023/05/03 05:44:42;;;;;;;6.32;4.00;;;8.40;99.90;;;;;;5073226;28;20035;-61
2023/05/03 05:47:08;;;;;;;4.65;3.78;;;8.50;99.90;;;;;;5069795;28;20599;-59
2023/05/03 05:49:34;;;;;;;4.80;3.63;;;8.60;99.90;;;;;;5072312;28;20028;-59
2023/05/03 05:52:00;;;;;;;5.05;3.10;;;8.70;99.90;;;;;;5035722;28;20389;-61
2023/05/03 05:54:26;;;;;;;4.95;3.80;;;8.80;99.90;;;;;;5034716;28;20524;-61
2023/05/03 05:56:52;;;;;;;4.03;3.20;;;8.90;99.90;;;;;;5071621;28;20272;-60
2023/05/03 05:59:17;;;;;;;5.20;4.10;;;9.10;99.90;;;;;;5052114;28;20029;-59
2023/05/03 06:01:44;;;;;;;4.63;3.60;;;9.20;99.90;;;;;;5068088;28;20119;-62
2023/05/03 06:04:14;;;;;;;3.28;2.50;;;9.40;99.90;;;;;;5070402;28;20024;-59
2023/05/03 06:06:40;;;;;;;3.33;2.35;;;9.50;99.90;;;;;;5075102;28;20059;-61
2023/05/03 06:09:07;;;;;;;5.80;2.78;;;9.60;99.90;;;;;;5071468;28;20408;-60
2023/05/03 06:11:33;;;;;;;9.93;3.30;;;9.80;99.90;;;;;;5075411;28;20071;-60
2023/05/03 06:13:59;;;;;;;6.55;3.05;;;9.90;99.90;;;;;;5062095;28;20066;-60
2023/05/03 06:16:25;;;;;;;5.90;2.50;;;9.90;99.90;;;;;;5074835;28;20885;-59
2023/05/03 06:18:50;;;;;;;5.40;2.30;;;10.10;99.90;;;;;;5078754;28;20715;-60
2023/05/03 06:21:16;;;;;;;4.68;2.05;;;10.20;99.90;;;;;;5077913;28;20083;-59
2023/05/03 06:23:42;;;;;;;5.43;2.28;;;10.30;99.90;;;;;;5077697;28;20056;-60
2023/05/03 06:28:28;;;;;;;3.80;2.42;;;10.40;99.90;;;;;;5109597;27;21175;-59
2023/05/03 06:30:54;;;;;;;6.05;2.83;;;10.50;97.10;;;;;;5058290;27;20071;-60
2023/05/03 06:33:20;;;;;;;5.03;3.28;;;10.50;96.80;;;;;;5058347;28;20037;-59
2023/05/03 06:35:46;;;;;;;5.28;2.63;;;10.60;97.50;;;;;;5064590;28;20040;-58
2023/05/03 06:38:12;;;;;;;5.78;2.30;;;10.60;96.90;;;;;;5074394;28;20051;-59
2023/05/03 06:40:40;;;;;;;4.72;3.00;;;10.70;97.80;;;;;;5077212;28;20124;-60
2023/05/03 06:43:08;;;;;;;6.82;3.35;;;10.80;96.00;;;;;;5076498;28;20085;-59
2023/05/03 06:45:34;;;;;;;8.20;3.35;;;10.80;96.80;;;;;;5072712;28;20610;-59
2023/05/03 06:48:00;;;;;;;4.03;2.20;;;11.00;95.90;;;;;;5076155;28;20033;-59
2023/05/03 06:50:25;;;;;;;5.53;2.70;;;11.20;95.90;;;;;;5074190;27;20552;-58
2023/05/03 06:52:52;;;;;;;4.90;3.15;;;11.30;95.50;;;;;;5074414;28;20030;-58
2023/05/03 06:55:18;;;;;;;6.30;2.88;;;11.40;93.50;;;;;;5074293;28;20108;-60
2023/05/03 06:57:46;;;;;;;6.15;3.35;;;11.40;93.40;;;;;;5072289;28;20148;-59
2023/05/03 07:00:12;;;;;;;6.25;2.60;;;11.30;91.20;;;;;;5075120;27;20027;-59
2023/05/03 07:02:38;;;;;;;4.90;3.10;;;11.10;91.90;;;;;;5079420;27;20108;-58
2023/05/03 07:05:04;;;;;;;4.93;2.25;;;11.00;93.30;;;;;;5077181;28;20452;-59
2023/05/03 07:07:30;;;;;;;5.10;2.75;;;10.90;92.40;;;;;;5076632;28;20028;-58
2023/05/03 07:09:55;;;;;;;7.57;2.97;;;11.00;93.20;;;;;;5076701;27;20031;-59
2023/05/03 07:12:26;;;;;;;9.30;2.58;;;11.00;93.70;;;;;;5074095;27;20762;-59
2023/05/03 07:14:52;;;;;;;5.43;3.03;;;11.00;93.50;;;;;;5078277;27;20117;-61
2023/05/03 07:17:18;;;;;;;3.38;2.67;;;10.90;93.30;;;;;;5075824;27;20044;-59
2023/05/03 07:19:43;;;;;;;5.38;2.78;;;10.80;93.30;;;;;;5076652;27;20028;-60
2023/05/03 07:22:09;;;;;;;5.40;3.35;;;10.70;94.20;;;;;;5073512;28;20115;-60
2023/05/03 07:24:35;;;;;;;8.43;3.03;;;10.70;93.20;;;;;;5076764;27;20166;-59
2023/05/03 07:27:02;;;;;;;5.55;3.42;;;10.60;93.70;;;;;;5075913;27;20501;-58
2023/05/03 07:29:27;;;;;;;7.40;3.20;;;10.60;93.20;;;;;;5073186;27;20029;-60
2023/05/03 07:31:53;;;;;;;4.13;3.67;;;10.60;95.00;;;;;;5075100;27;20028;-59
2023/05/03 07:34:19;;;;;;;4.20;2.95;;;10.60;95.10;;;;;;5075292;28;20028;-58
2023/05/03 07:36:45;;;;;;;4.60;2.92;;;10.70;95.70;;;;;;5076558;27;20033;-60
2023/05/03 07:39:11;;;;;;;7.53;3.40;;;10.80;93.40;;;;;;5065753;28;20135;-59
2023/05/03 07:41:36;;;;;;;4.68;3.17;;;10.80;92.10;;;;;;5064597;28;20430;-59
2023/05/03 07:44:02;;;;;;;5.70;3.60;;;10.80;91.80;;;;;;5061087;28;20035;-59
2023/05/03 07:46:33;;;;;;;4.18;3.78;;;10.90;92.10;;;;;;5065262;28;20029;-59
2023/05/03 07:49:00;;;;;;;6.70;3.63;;;10.90;92.10;;;;;;5062220;28;20032;-59
2023/05/03 07:51:25;;;;;;;5.80;4.00;;;10.90;92.30;;;;;;5064911;28;20092;-59
2023/05/03 07:53:51;;;;;;;5.13;3.75;;;11.00;91.60;;;;;;5063154;28;20048;-59
2023/05/03 07:56:16;;;;;;;10.82;4.10;;;11.10;91.20;;;;;;5058672;28;20032;-59
2023/05/03 07:58:42;;;;;;;4.72;3.83;;;11.10;91.70;;;;;;5061147;28;20114;-60
2023/05/03 08:01:09;;;;;;;5.15;4.65;;;11.10;91.30;;;;;;5062942;28;20031;-60
2023/05/03 08:03:35;;;;;;;5.03;4.30;;;11.30;92.40;;;;;;5060637;28;20032;-59
2023/05/03 08:06:00;;;;;;;5.45;4.10;;;11.40;94.60;;;;;;5061153;28;20028;-60
2023/05/03 08:08:26;;;;;;;4.75;3.88;;;11.60;92.50;;;;;;5061070;28;20135;-58
2023/05/03 08:10:52;;;;;;;4.97;3.97;;;11.70;92.70;;;;;;5060391;28;20077;-59
2023/05/03 08:13:17;;;;;;;6.78;4.22;;;11.90;91.80;;;;;;5060154;28;20048;-59
2023/05/03 08:15:44;;;;;;;7.70;4.28;;;12.10;90.40;;;;;;5057247;28;20115;-59
2023/05/03 08:18:10;;;;;;;7.38;4.30;;;12.10;89.00;;;;;;5061535;28;20086;-60
2023/05/03 08:20:36;;;;;;;5.20;4.25;;;12.20;93.20;;;;;;5059384;28;20515;-59
2023/05/03 08:23:02;;;;;;;5.00;4.53;;;12.30;92.00;;;;;;5056459;28;20528;-59
2023/05/03 08:25:28;;;;;;;6.32;3.47;;;12.40;90.20;;;;;;5061277;28;20033;-59
2023/05/03 08:27:54;;;;;;;5.72;4.50;;;12.40;89.70;;;;;;5059142;28;20040;-62
2023/05/03 08:30:24;;;;;;;7.13;4.32;;;12.40;89.90;;;;;;5059092;28;20025;-60
2023/05/03 08:32:50;;;;;;;8.55;4.63;;;12.50;87.80;;;;;;5058547;28;20026;-61
2023/05/03 08:35:16;;;;;;;7.15;4.70;;;12.50;92.70;;;;;;5056310;28;20032;-62
2023/05/03 08:37:42;;;;;;;6.75;4.80;;;12.60;92.50;;;;;;5058293;28;20037;-61
2023/05/03 08:40:13;;;;;;;5.10;4.60;;;12.70;92.80;;;;;;5059887;28;20028;-63
2023/05/03 08:42:43;;;;;;;6.80;3.95;;;12.80;92.80;;;;;;5057837;28;20039;-62
2023/05/03 08:45:11;;;;;;;7.78;4.45;;;13.00;94.90;;;;;;5056310;28;20405;-62
2023/05/03 08:47:39;;;;;;;4.95;3.70;;;13.00;94.00;;;;;;5062056;28;20041;-62
2023/05/03 08:50:05;;;;;;;5.47;3.97;;;13.10;91.80;;;;;;5056384;28;20564;-62
2023/05/03 08:52:34;;;;;;;6.05;5.00;;;13.10;89.40;;;;;;5062690;28;20035;-62
2023/05/03 08:54:59;;;;;;;6.75;4.78;;;13.00;91.50;;;;;;5059919;28;20056;-63
2023/05/03 08:57:26;;;;;;;7.10;4.00;;;13.00;89.10;;;;;;5059997;28;20500;-63
2023/05/03 08:59:53;;;;;;;4.90;4.40;;;12.90;85.20;;;;;;5057195;28;20117;-62
2023/05/03 09:02:19;;;;;;;4.75;3.97;;;13.00;89.80;;;;;;5057728;28;20060;-63
2023/05/03 09:04:44;;;;;;;5.93;5.10;;;13.20;92.10;;;;;;5055976;28;20798;-61
2023/05/03 09:07:11;;;;;;;9.68;4.32;;;13.70;84.70;;;;;;5057242;28;20021;-63
2023/05/03 09:09:37;;;;;;;5.05;4.10;;;14.10;81.00;;;;;;5055538;28;20033;-63
2023/05/03 09:12:04;;;;;;;4.40;4.00;;;15.40;81.70;;;;;;5054670;28;20025;-61
2023/05/03 09:14:30;;;;;;;4.10;3.72;;;16.60;78.70;;;;;;5055428;28;20083;-63
2023/05/03 09:16:58;;;;;;;5.78;4.10;;;17.60;73.30;;;;;;5052171;28;20033;-61
2023/05/03 09:19:24;;;;;;;13.48;4.50;;;18.90;63.00;;;;;;5057352;28;20102;-63
2023/05/03 09:21:49;;;;;;;5.05;3.88;;;19.80;63.40;;;;;;5056658;28;20075;-66
2023/05/03 09:24:17;;;;;;;5.68;3.45;;;20.50;61.60;;;;;;5057181;28;20036;-61
2023/05/03 09:26:45;;;;;;;5.13;3.63;;;21.10;55.50;;;;;;5057453;28;20067;-61
2023/05/03 09:29:33;;;;;;;6.60;3.75;;;20.90;56.80;;;;;;5055847;28;20026;-63
2023/05/03 09:32:07;;;;;;;4.07;3.22;;;21.30;55.70;;;;;;5058464;28;20033;-62
2023/05/03 09:34:34;;;;;;;6.43;3.80;;;21.40;54.00;;;;;;5058415;28;20017;-63
2023/05/03 09:37:00;;;;;;;5.38;3.20;;;21.60;54.40;;;;;;5058789;28;20028;-60
2023/05/03 09:39:26;;;;;;;5.38;3.22;;;21.80;51.30;;;;;;5058409;28;20029;-62
2023/05/03 09:41:52;;;;;;;7.38;3.67;;;21.90;52.00;;;;;;5055803;28;21015;-60
2023/05/03 09:44:17;;;;;;;3.83;3.53;;;21.50;54.50;;;;;;5056860;28;20764;-62
2023/05/03 09:47:05;;;;;;;4.28;3.88;;;20.90;57.70;;;;;;5058167;28;20104;-61
2023/05/03 09:49:32;;;;;;;4.80;4.05;;;21.30;56.40;;;;;;5057894;28;20024;-62
2023/05/03 09:52:01;;;;;;;7.30;4.03;;;22.00;53.30;;;;;;5054110;28;20026;-63
2023/05/03 09:54:30;;;;;;;4.55;3.58;;;22.00;50.20;;;;;;5055911;28;20024;-61
2023/05/03 09:56:56;;;;;;;5.10;3.78;;;21.70;55.00;;;;;;5055654;28;20041;-61
2023/05/03 09:59:22;;;;;;;6.97;3.60;;;21.70;51.90;;;;;;5056112;28;20033;-61
2023/05/03 10:01:49;;;;;;;4.57;3.38;;;22.10;52.90;;;;;;5056720;28;20060;-62
2023/05/03 10:04:20;;;;;;;4.18;3.63;;;22.00;53.60;;;;;;5055150;28;20020;-62
2023/05/03 10:06:48;;;;;;;6.05;3.83;;;22.10;55.50;;;;;;5053868;28;20036;-62
2023/05/03 10:09:29;;;;;;;4.50;2.83;;;22.50;52.60;;;;;;5056953;28;20032;-63
2023/05/03 10:11:59;;;;;;;5.03;3.45;;;22.80;51.70;;;;;;5057968;28;20036;-62
2023/05/03 10:14:25;;;;;;;3.40;3.10;;;22.90;50.50;;;;;;5055910;28;20116;-62
2023/05/03 10:16:57;;;;;;;4.65;3.40;;;23.10;49.00;;;;;;5056556;28;20510;-62
2023/05/03 10:19:27;;;;;;;3.67;3.28;;;23.00;52.70;;;;;;5057246;28;20035;-63
2023/05/03 10:22:06;;;;;;;3.47;2.90;;;23.20;52.50;;;;;;5060500;28;20047;-62
2023/05/03 10:24:33;;;;;;;8.63;3.13;;;23.40;48.80;;;;;;5055532;28;20040;-64
2023/05/03 10:26:59;;;;;;;4.47;3.20;;;23.20;47.40;;;;;;5055096;28;20128;-64
2023/05/03 10:29:34;;;;;;;6.18;3.70;;;21.80;50.00;;;;;;5062740;28;20112;-64
2023/05/03 10:32:02;;;;;;;12.60;4.40;;;21.10;55.10;;;;;;5057353;28;20585;-63
2023/05/03 10:34:34;;;;;;;5.78;4.10;;;21.00;56.10;;;;;;5055207;28;20056;-62
2023/05/03 10:37:09;;;;;;;5.03;3.45;;;21.40;52.20;;;;;;5056073;28;20449;-65
2023/05/03 10:39:35;;;;;;;7.35;3.38;;;21.60;52.70;;;;;;5059706;28;20112;-65
2023/05/03 10:42:07;;;;;;;4.40;3.70;;;21.60;54.00;;;;;;5058574;28;20123;-63
2023/05/03 10:44:49;;;;;;;3.90;3.60;;;21.40;54.80;;;;;;5057547;28;20040;-61
2023/05/03 10:47:23;;;;;;;31.33;6.50;;;21.30;55.60;;;;;;5054327;28;20040;-60
2023/05/03 10:50:27;;;;;;;17.45;4.20;;;21.40;52.40;;;;;;5056849;28;20051;-62
2023/05/03 10:52:53;;;;;;;4.85;3.75;;;21.30;54.90;;;;;;5052174;28;20056;-63
2023/05/03 10:55:21;;;;;;;4.05;3.35;;;21.00;55.40;;;;;;5058752;28;20539;-63
2023/05/03 10:57:47;;;;;;;6.05;3.53;;;21.00;53.30;;;;;;5061939;28;20032;-61
2023/05/03 11:00:28;;;;;;;22.05;5.28;;;20.90;54.40;;;;;;5057290;28;20123;-62
2023/05/03 11:03:02;;;;;;;8.65;4.28;;;20.70;52.30;;;;;;5055625;28;20033;-62
2023/05/03 11:05:30;;;;;;;6.05;3.85;;;20.30;52.70;;;;;;5056103;28;20029;-61
2023/05/03 11:08:20;;;;;;;5.82;3.85;;;20.00;53.90;;;;;;5057910;28;20401;-65
2023/05/03 11:10:55;;;;;;;4.82;3.97;;;19.70;55.60;;;;;;5052303;28;20606;-61
2023/05/03 11:13:21;;;;;;;5.65;3.55;;;19.60;53.10;;;;;;5059033;28;20032;-61
2023/05/03 11:15:47;;;;;;;4.90;3.53;;;19.40;55.00;;;;;;5060957;28;20527;-61
2023/05/03 11:18:13;;;;;;;3.97;3.53;;;19.20;53.20;;;;;;5061690;28;20032;-62
2023/05/03 11:20:38;;;;;;;5.90;4.07;;;19.00;54.70;;;;;;5058197;28;20039;-61
2023/05/03 11:23:06;;;;;;;4.03;3.63;;;18.60;57.50;;;;;;5059740;28;20516;-63
2023/05/03 11:25:32;;;;;;;4.65;3.80;;;18.50;57.90;;;;;;5060229;28;20559;-62
2023/05/03 11:28:03;;;;;;;5.20;3.30;;;18.40;56.70;;;;;;5060661;28;20037;-63
2023/05/03 11:30:31;;;;;;;4.47;3.00;;;18.30;57.00;;;;;;5056166;28;20034;-64
2023/05/03 11:32:58;;;;;;;6.22;3.83;;;18.30;56.60;;;;;;5056875;28;20124;-63
2023/05/03 11:35:25;;;;;;;4.80;3.97;;;18.40;58.10;;;;;;5061059;28;20400;-61
2023/05/03 11:37:52;;;;;;;3.70;3.28;;;18.40;60.00;;;;;;5058945;28;20036;-61
2023/05/03 11:40:18;;;;;;;3.95;3.42;;;18.60;59.10;;;;;;5056540;28;20045;-61
2023/05/03 11:42:54;;;;;;;4.40;3.38;;;18.50;54.10;;;;;;5060399;28;20786;-61
2023/05/03 11:45:23;;;;;;;5.55;3.40;;;18.50;58.20;;;;;;5057931;28;20386;-62
2023/05/03 11:47:49;;;;;;;4.40;3.13;;;18.50;54.00;;;;;;5059055;28;20040;-61
2023/05/03 11:50:15;;;;;;;4.35;3.28;;;18.60;51.70;;;;;;5060857;28;20044;-63
2023/05/03 11:52:41;;;;;;;3.53;2.70;;;18.80;52.90;;;;;;5055574;28;20147;-60
2023/05/03 11:55:09;;;;;;;2.92;2.72;;;18.80;52.70;;;;;;5058210;28;20028;-61
2023/05/03 11:57:36;;;;;;;3.63;3.33;;;19.00;51.70;;;;;;5058221;28;20043;-62
2023/05/03 12:00:18;;;;;;;3.65;3.20;;;19.10;55.10;;;;;;5057108;28;20029;-63
2023/05/03 12:02:46;;;;;;;3.63;2.88;;;19.20;55.90;;;;;;5058521;28;20021;-61
2023/05/03 12:05:12;;;;;;;4.43;3.10;;;19.20;56.70;;;;;;5055210;28;20103;-61
2023/05/03 12:07:38;;;;;;;4.18;3.22;;;19.00;52.00;;;;;;5066522;28;20014;-62
2023/05/03 12:10:15;;;;;;;4.28;2.28;;;19.20;53.40;;;;;;5058369;28;20027;-63
2023/05/03 12:12:53;;;;;;;2.65;2.42;;;19.50;51.60;;;;;;5067171;28;20078;-61
2023/05/03 12:15:33;;;;;;;3.05;2.28;;;19.70;51.40;;;;;;5060521;28;20085;-61
2023/05/03 12:18:10;;;;;;;4.40;1.98;;;19.70;51.20;;;;;;5061352;28;20086;-62
2023/05/03 12:20:37;;;;;;;4.60;2.17;;;19.70;51.30;;;;;;5059160;28;20496;-62
2023/05/03 12:23:06;;;;;;;4.22;2.30;;;19.70;49.90;;;;;;5055827;28;20396;-62
2023/05/03 12:25:32;;;;;;;2.50;2.20;;;19.60;50.10;;;;;;5057522;28;20103;-63
2023/05/03 12:28:04;;;;;;;2.75;2.00;;;19.70;48.90;;;;;;5059928;28;20032;-63
2023/05/03 12:30:31;;;;;;;4.63;2.75;;;19.80;49.10;;;;;;5059404;28;20047;-60
2023/05/03 12:32:57;;;;;;;7.25;2.45;;;19.70;49.70;;;;;;5059959;28;20458;-61
2023/05/03 12:35:25;;;;;;;4.07;2.30;;;19.90;50.60;;;;;;5057765;28;20112;-61
2023/05/03 12:37:51;;;;;;;4.50;2.38;;;20.10;46.00;;;;;;5057323;28;20029;-60
2023/05/03 12:40:18;;;;;;;2.83;2.35;;;20.30;49.30;;;;;;5062880;28;20016;-61
2023/05/03 12:42:44;;;;;;;3.28;2.30;;;20.40;46.90;;;;;;5057068;28;20121;-60
2023/05/03 12:45:13;;;;;;;3.40;2.35;;;20.60;47.90;;;;;;5058595;28;20062;-61
2023/05/03 12:47:40;;;;;;;5.00;1.80;;;20.70;46.70;;;;;;5058188;28;20043;-61
2023/05/03 12:50:08;;;;;;;2.28;1.80;;;20.80;48.20;;;;;;5058868;28;20079;-64
2023/05/03 12:52:34;;;;;;;3.58;1.90;;;21.00;46.80;;;;;;5041706;28;20024;-63
2023/05/03 12:54:59;;;;;;;3.63;2.17;;;20.90;44.70;;;;;;5057788;28;20029;-62